Time;durP1;ratioP1;P1;durP2;ratioP2;P2;SDS_P1;SDS_P2;PMS_P1;PMS_P2;Temp;Humidity;BMP_temperature;BMP_pressure;BME280_temperature;BME280_humidity;BME280_pressure;Samples;Min_cycle;Max_cycle;Signal;HPM_P1;HPM_P2
2024/01/24 00:00:33;;;;;;;17.58;5.35;;;12.30;99.90;;;;;;5073126;28;20488;-61
2024/01/24 00:02:59;;;;;;;24.35;5.05;;;8.40;99.90;;;;;;5073087;28;20546;-61
2024/01/24 00:05:25;;;;;;;19.80;3.97;;;12.40;99.90;;;;;;5071728;28;20041;-61
2024/01/24 00:07:51;;;;;;;25.45;4.68;;;12.10;99.90;;;;;;5072651;28;20050;-61
2024/01/24 00:10:16;;;;;;;23.45;4.13;;;11.80;99.90;;;;;;5072842;28;20037;-61
2024/01/24 00:12:42;;;;;;;21.02;4.80;;;12.20;99.90;;;;;;5072780;28;20097;-61
2024/01/24 00:15:08;;;;;;;22.33;5.38;;;9.30;99.90;;;;;;5072604;28;20469;-61
2024/01/24 00:17:34;;;;;;;24.50;4.55;;;12.40;99.90;;;;;;5071090;28;20024;-60
2024/01/24 00:19:59;;;;;;;23.08;5.22;;;10.90;99.90;;;;;;5072852;28;20393;-61
2024/01/24 00:22:25;;;;;;;17.58;5.68;;;9.00;99.90;;;;;;5072310;28;20044;-61
2024/01/24 00:24:51;;;;;;;26.40;4.72;;;12.20;99.90;;;;;;5072782;28;20040;-61
2024/01/24 00:27:16;;;;;;;19.35;5.20;;;9.00;99.90;;;;;;5072337;28;20040;-61
2024/01/24 00:29:43;;;;;;;22.15;3.90;;;12.60;99.90;;;;;;5072628;28;20032;-61
2024/01/24 00:32:08;;;;;;;24.13;3.78;;;9.30;99.90;;;;;;5072590;28;20052;-61
2024/01/24 00:34:34;;;;;;;23.10;4.20;;;12.10;99.90;;;;;;5072460;28;20044;-61
2024/01/24 00:37:00;;;;;;;20.67;4.28;;;9.80;99.90;;;;;;5072308;28;20407;-61
2024/01/24 00:39:25;;;;;;;18.02;3.75;;;12.40;99.90;;;;;;5071310;28;20496;-61
2024/01/24 00:41:52;;;;;;;20.50;3.97;;;9.00;99.90;;;;;;5072412;28;20044;-61
2024/01/24 00:44:17;;;;;;;16.67;3.65;;;12.60;99.90;;;;;;5072471;28;20064;-61
2024/01/24 00:46:43;;;;;;;21.70;3.40;;;12.10;99.90;;;;;;5072262;28;20472;-61
2024/01/24 00:49:10;;;;;;;21.98;4.70;;;12.70;99.90;;;;;;5072074;28;20186;-61
2024/01/24 00:51:36;;;;;;;17.67;3.33;;;10.20;99.90;;;;;;5072427;28;20037;-61
2024/01/24 00:54:03;;;;;;;23.55;3.85;;;10.80;99.90;;;;;;5072080;28;20056;-61
2024/01/24 00:56:29;;;;;;;24.20;3.08;;;9.20;99.90;;;;;;5070974;28;20126;-61
2024/01/24 00:58:54;;;;;;;19.75;3.67;;;9.30;99.90;;;;;;5072178;28;20044;-61
2024/01/24 01:01:20;;;;;;;26.67;4.10;;;9.20;99.90;;;;;;5072011;28;20045;-50
2024/01/24 01:03:46;;;;;;;18.83;3.58;;;9.30;99.90;;;;;;5070648;28;20052;-51
2024/01/24 01:06:12;;;;;;;28.10;3.92;;;12.30;99.90;;;;;;5071937;28;20048;-49
2024/01/24 01:08:37;;;;;;;19.27;3.17;;;8.90;99.90;;;;;;5071865;28;20051;-49
2024/01/24 01:11:05;;;;;;;22.80;3.97;;;12.60;99.90;;;;;;5072049;28;20184;-48
2024/01/24 01:13:33;;;;;;;22.23;4.03;;;9.30;99.90;;;;;;5071885;28;20047;-50
2024/01/24 01:15:58;;;;;;;20.35;3.63;;;9.40;99.90;;;;;;5072131;28;20101;-51
2024/01/24 01:18:24;;;;;;;18.77;3.60;;;9.80;99.90;;;;;;5075518;28;20036;-49
2024/01/24 01:20:50;;;;;;;19.38;3.45;;;8.80;99.90;;;;;;5075894;28;20052;-49
2024/01/24 01:23:16;;;;;;;17.83;3.50;;;12.70;99.90;;;;;;5074800;28;20036;-49
2024/01/24 01:25:41;;;;;;;15.52;3.20;;;8.80;99.90;;;;;;5075861;28;20037;-50
2024/01/24 01:28:07;;;;;;;21.40;4.10;;;12.70;99.90;;;;;;5076061;28;20037;-50
2024/01/24 01:30:32;;;;;;;20.58;4.63;;;12.00;99.90;;;;;;5075773;28;20044;-49
2024/01/24 01:32:58;;;;;;;20.77;4.15;;;9.70;99.90;;;;;;5075856;28;20392;-50
2024/01/24 01:35:24;;;;;;;12.10;2.58;;;12.60;99.90;;;;;;5074375;28;20105;-47
2024/01/24 01:37:50;;;;;;;18.25;3.58;;;9.50;99.90;;;;;;5075903;28;20036;-61
2024/01/24 01:40:15;;;;;;;17.25;3.25;;;10.60;99.90;;;;;;5075730;28;20508;-61
2024/01/24 01:42:45;;;;;;;19.05;3.30;;;9.50;99.90;;;;;;5075674;28;20068;-61
2024/01/24 01:45:11;;;;;;;19.08;3.33;;;12.60;99.90;;;;;;5075739;28;20404;-61
2024/01/24 01:47:38;;;;;;;13.43;2.58;;;9.40;99.90;;;;;;5075395;28;20045;-60
2024/01/24 01:50:08;;;;;;;12.40;2.30;;;9.50;99.90;;;;;;5075117;28;20056;-60
2024/01/24 01:52:33;;;;;;;14.10;2.28;;;9.60;99.90;;;;;;5075501;28;20040;-61
2024/01/24 01:54:59;;;;;;;15.15;2.70;;;10.60;99.90;;;;;;5074110;28;20040;-60
2024/01/24 01:57:25;;;;;;;19.63;2.55;;;10.20;99.90;;;;;;5075517;28;20041;-61
2024/01/24 01:59:52;;;;;;;10.52;2.38;;;9.70;99.90;;;;;;5075293;28;20047;-61
2024/01/24 02:02:18;;;;;;;9.13;1.90;;;12.30;99.90;;;;;;5075153;28;20524;-61
2024/01/24 02:04:43;;;;;;;13.18;3.38;;;10.00;99.90;;;;;;5075011;28;20048;-61
2024/01/24 02:07:09;;;;;;;13.13;2.03;;;11.50;99.90;;;;;;5075017;28;20036;-61
2024/01/24 02:09:35;;;;;;;17.50;2.95;;;10.00;99.90;;;;;;5075009;28;20044;-61
2024/01/24 02:12:01;;;;;;;10.77;1.80;;;10.10;99.90;;;;;;5075086;28;20072;-61
2024/01/24 02:14:27;;;;;;;10.90;1.58;;;10.40;99.90;;;;;;5074972;28;20393;-61
2024/01/24 02:16:53;;;;;;;18.00;3.15;;;11.80;99.90;;;;;;5074752;28;20048;-61
2024/01/24 02:19:18;;;;;;;12.82;1.67;;;12.20;99.90;;;;;;5074840;28;20111;-60
2024/01/24 02:21:44;;;;;;;12.73;2.63;;;12.10;99.90;;;;;;5075051;28;20040;-61
2024/01/24 02:24:13;;;;;;;10.60;1.90;;;10.60;99.90;;;;;;5074938;28;20052;-61
2024/01/24 02:26:39;;;;;;;15.25;2.85;;;11.90;99.90;;;;;;5074890;28;20047;-61
2024/01/24 02:29:05;;;;;;;14.80;2.42;;;10.30;99.90;;;;;;5073746;28;20037;-61
2024/01/24 02:31:31;;;;;;;15.70;2.13;;;12.30;99.90;;;;;;5074883;28;20093;-61
2024/01/24 02:33:57;;;;;;;10.93;2.40;;;10.10;99.90;;;;;;5074597;28;20147;-61
2024/01/24 02:36:22;;;;;;;14.45;1.73;;;12.00;99.90;;;;;;5074701;28;20495;-61
2024/01/24 02:38:48;;;;;;;11.60;2.58;;;10.50;99.90;;;;;;5074727;28;20044;-61
2024/01/24 02:41:14;;;;;;;14.93;2.13;;;12.10;99.90;;;;;;5074481;28;20048;-61
2024/01/24 02:43:40;;;;;;;13.07;2.22;;;12.00;99.90;;;;;;5074364;28;20045;-61
2024/01/24 02:46:06;;;;;;;12.57;2.10;;;10.30;99.90;;;;;;5074604;28;20044;-61
2024/01/24 02:48:32;;;;;;;15.13;2.10;;;12.10;99.90;;;;;;5073827;28;20052;-61
2024/01/24 02:50:57;;;;;;;16.45;2.00;;;12.00;99.90;;;;;;5074493;28;20061;-61
2024/01/24 02:53:23;;;;;;;16.83;2.28;;;10.30;99.90;;;;;;5074450;28;20043;-60
2024/01/24 02:55:49;;;;;;;13.48;3.35;;;10.40;99.90;;;;;;5074451;28;20098;-61
2024/01/24 02:58:14;;;;;;;19.00;2.58;;;11.70;99.90;;;;;;5074357;28;20032;-62
2024/01/24 03:00:40;;;;;;;14.23;2.10;;;10.20;99.90;;;;;;5073966;28;20048;-65
2024/01/24 03:03:06;;;;;;;12.38;1.98;;;11.50;99.90;;;;;;5074010;28;20076;-61
2024/01/24 03:05:31;;;;;;;14.25;2.65;;;10.10;99.90;;;;;;5072642;28;20048;-61
2024/01/24 03:07:58;;;;;;;13.98;2.38;;;11.10;99.90;;;;;;5074232;28;20430;-61
2024/01/24 03:10:25;;;;;;;12.48;2.47;;;10.30;99.90;;;;;;5073800;28;20035;-61
2024/01/24 03:12:52;;;;;;;19.73;3.58;;;10.40;99.90;;;;;;5074167;28;20076;-61
2024/01/24 03:15:18;;;;;;;18.40;3.13;;;10.20;99.90;;;;;;5073843;28;20098;-61
2024/01/24 03:17:43;;;;;;;15.55;2.92;;;11.30;99.90;;;;;;5072587;28;20443;-61
2024/01/24 03:20:11;;;;;;;17.67;2.78;;;11.00;99.90;;;;;;5074058;28;20072;-61
2024/01/24 03:22:37;;;;;;;21.95;3.03;;;10.60;99.90;;;;;;5073848;28;20111;-62
2024/01/24 03:25:03;;;;;;;28.65;3.08;;;10.10;99.90;;;;;;5072703;28;20194;-61
2024/01/24 03:27:28;;;;;;;16.10;2.80;;;11.00;99.90;;;;;;5073506;28;20037;-61
2024/01/24 03:29:55;;;;;;;21.63;3.13;;;9.90;99.90;;;;;;5073412;28;20033;-61
2024/01/24 03:32:20;;;;;;;20.95;3.78;;;10.70;99.90;;;;;;5073679;28;20068;-61
2024/01/24 03:34:57;;;;;;;21.30;2.95;;;9.90;99.90;;;;;;5073589;28;20137;-61
2024/01/24 03:37:23;;;;;;;23.75;3.55;;;10.60;99.90;;;;;;5073338;28;20033;-61
2024/01/24 03:39:49;;;;;;;20.20;3.60;;;11.00;99.90;;;;;;5072081;28;20044;-61
2024/01/24 03:42:14;;;;;;;18.85;3.47;;;10.90;99.90;;;;;;5073548;28;20565;-61
2024/01/24 03:44:40;;;;;;;16.38;2.95;;;11.00;99.90;;;;;;5072967;28;20067;-61
2024/01/24 03:47:06;;;;;;;19.48;4.00;;;11.00;99.90;;;;;;5071895;28;20044;-61
2024/01/24 03:49:32;;;;;;;24.65;3.80;;;10.40;99.90;;;;;;5072785;28;20488;-61
2024/01/24 03:51:58;;;;;;;16.75;3.13;;;10.00;99.90;;;;;;5073020;28;20058;-61
2024/01/24 03:54:24;;;;;;;18.30;2.95;;;11.10;99.90;;;;;;5073032;28;20491;-61
2024/01/24 03:56:49;;;;;;;16.23;2.90;;;11.00;99.90;;;;;;5072899;28;20493;-61
2024/01/24 03:59:16;;;;;;;18.67;2.90;;;10.80;99.90;;;;;;5073154;28;20032;-61
2024/01/24 04:01:42;;;;;;;32.28;5.38;;;10.80;99.90;;;;;;5073115;28;20131;-61
2024/01/24 04:04:08;;;;;;;18.88;3.08;;;10.00;99.90;;;;;;5072826;28;20048;-62
2024/01/24 04:06:35;;;;;;;16.85;2.60;;;10.50;99.90;;;;;;5071570;28;20044;-60
2024/01/24 04:09:00;;;;;;;22.20;4.47;;;10.50;99.90;;;;;;5072963;28;20131;-61
2024/01/24 04:11:26;;;;;;;32.97;4.60;;;10.90;99.90;;;;;;5073077;28;20108;-61
2024/01/24 04:13:53;;;;;;;20.73;3.78;;;10.80;99.90;;;;;;5072568;28;20036;-61
2024/01/24 04:16:19;;;;;;;25.35;4.32;;;10.40;99.90;;;;;;5072786;28;20433;-61
2024/01/24 04:18:45;;;;;;;24.88;4.10;;;10.90;99.90;;;;;;5072742;28;20040;-61
2024/01/24 04:21:11;;;;;;;22.38;4.10;;;10.80;99.90;;;;;;5072701;28;20062;-62
2024/01/24 04:23:37;;;;;;;22.17;3.67;;;10.90;99.90;;;;;;5072490;28;20040;-61
2024/01/24 04:26:06;;;;;;;23.80;3.92;;;10.30;99.90;;;;;;5072401;28;20120;-61
2024/01/24 04:28:32;;;;;;;25.23;5.43;;;10.10;99.90;;;;;;5072535;28;20028;-61
2024/01/24 04:30:58;;;;;;;26.95;5.18;;;10.40;99.90;;;;;;5072437;28;20063;-61
2024/01/24 04:33:24;;;;;;;22.50;3.92;;;10.10;99.90;;;;;;5072525;28;20041;-61
2024/01/24 04:35:50;;;;;;;23.48;4.28;;;10.20;99.90;;;;;;5072350;28;20041;-61
2024/01/24 04:38:16;;;;;;;26.48;4.38;;;10.60;99.90;;;;;;5072338;28;20499;-61
2024/01/24 04:40:42;;;;;;;27.50;5.20;;;10.00;99.90;;;;;;5072621;28;20075;-61
2024/01/24 04:43:07;;;;;;;34.33;6.15;;;10.00;99.90;;;;;;5072178;28;20485;-61
2024/01/24 04:45:33;;;;;;;26.33;5.28;;;10.10;99.90;;;;;;5072324;28;20106;-61
2024/01/24 04:47:59;;;;;;;29.45;5.30;;;10.60;99.90;;;;;;5072518;28;20028;-61
2024/01/24 04:50:25;;;;;;;27.92;5.68;;;10.50;99.90;;;;;;5071910;28;20511;-61
2024/01/24 04:52:51;;;;;;;28.63;5.22;;;10.40;99.90;;;;;;5071558;28;20444;-61
2024/01/24 04:55:16;;;;;;;27.08;4.40;;;10.60;99.90;;;;;;5072046;28;20047;-61
2024/01/24 04:57:42;;;;;;;27.00;5.32;;;10.40;99.90;;;;;;5070745;28;20082;-62
2024/01/24 05:00:09;;;;;;;31.75;5.40;;;10.30;99.90;;;;;;5072115;28;20385;-61
2024/01/24 05:02:36;;;;;;;33.05;5.25;;;10.40;99.90;;;;;;5072255;28;20037;-61
2024/01/24 05:05:05;;;;;;;28.73;6.63;;;10.00;99.90;;;;;;5072035;28;20392;-61
2024/01/24 05:07:30;;;;;;;26.65;5.85;;;9.90;99.90;;;;;;5071985;28;20127;-61
2024/01/24 05:09:56;;;;;;;36.17;5.82;;;10.00;99.90;;;;;;5071904;28;20140;-61
2024/01/24 05:12:22;;;;;;;33.78;5.45;;;10.30;99.90;;;;;;5072273;28;20106;-61
2024/01/24 05:14:47;;;;;;;36.85;6.07;;;10.30;99.90;;;;;;5072044;28;20121;-60
2024/01/24 05:17:13;;;;;;;26.80;4.63;;;10.40;99.90;;;;;;5071941;28;20055;-61
2024/01/24 05:19:39;;;;;;;34.10;6.78;;;10.30;99.90;;;;;;5072111;28;20477;-61
2024/01/24 05:22:04;;;;;;;36.75;6.93;;;9.90;99.90;;;;;;5071884;28;20516;-61
2024/01/24 05:24:30;;;;;;;31.02;6.45;;;10.40;99.90;;;;;;5070484;28;20106;-60
2024/01/24 05:26:57;;;;;;;32.00;6.32;;;9.90;99.90;;;;;;5072044;28;20052;-60
2024/01/24 05:29:22;;;;;;;29.08;5.43;;;9.90;99.90;;;;;;5071809;28;20068;-60
2024/01/24 05:31:48;;;;;;;30.42;6.63;;;9.80;99.90;;;;;;5071952;28;20461;-61
2024/01/24 05:34:13;;;;;;;32.58;6.13;;;9.90;99.90;;;;;;5071725;28;20501;-60
2024/01/24 05:36:39;;;;;;;33.13;5.35;;;9.80;99.90;;;;;;5071867;28;20465;-61
2024/01/24 05:39:06;;;;;;;30.85;6.95;;;10.00;99.90;;;;;;5071539;28;20469;-61
2024/01/24 05:41:33;;;;;;;35.53;6.43;;;10.10;99.90;;;;;;5071506;28;20044;-61
2024/01/24 05:43:59;;;;;;;41.83;7.80;;;9.70;99.90;;;;;;5070538;28;20047;-61
2024/01/24 05:46:25;;;;;;;40.50;8.98;;;10.00;99.90;;;;;;5070909;28;20049;-60
2024/01/24 05:48:51;;;;;;;35.00;6.82;;;9.90;99.90;;;;;;5069296;28;20067;-60
2024/01/24 05:51:16;;;;;;;37.65;6.28;;;9.90;99.90;;;;;;5070791;28;20045;-61
2024/01/24 05:53:42;;;;;;;37.00;7.38;;;9.50;99.90;;;;;;5070864;28;20480;-47
2024/01/24 05:56:08;;;;;;;33.63;6.70;;;9.60;99.90;;;;;;5070577;28;20033;-48
2024/01/24 05:58:35;;;;;;;37.20;6.38;;;10.00;99.90;;;;;;5070871;28;20040;-49
2024/01/24 06:01:01;;;;;;;38.22;6.15;;;9.60;99.90;;;;;;5070585;28;20040;-48
2024/01/24 06:03:26;;;;;;;35.97;8.35;;;10.00;99.90;;;;;;5072468;28;20036;-47
2024/01/24 06:05:52;;;;;;;36.67;6.93;;;9.80;99.90;;;;;;5074410;28;20040;-49
2024/01/24 06:08:17;;;;;;;35.13;7.47;;;10.00;99.90;;;;;;5073002;28;20043;-48
2024/01/24 06:10:44;;;;;;;31.02;6.35;;;9.90;99.90;;;;;;5074356;28;20044;-50
2024/01/24 06:13:09;;;;;;;38.33;6.65;;;9.70;99.90;;;;;;5074057;28;20048;-48
2024/01/24 06:15:35;;;;;;;38.95;7.43;;;9.80;99.90;;;;;;5074405;28;20040;-47
2024/01/24 06:18:00;;;;;;;36.00;7.05;;;9.60;99.90;;;;;;5074377;28;20502;-47
2024/01/24 06:20:27;;;;;;;34.35;6.85;;;9.80;99.90;;;;;;5074040;28;20561;-49
2024/01/24 06:22:53;;;;;;;36.90;6.30;;;9.80;99.90;;;;;;5074116;28;20544;-45
2024/01/24 06:25:18;;;;;;;35.03;6.80;;;9.60;99.90;;;;;;5073957;28;20044;-50
2024/01/24 06:27:45;;;;;;;31.13;5.35;;;9.70;99.90;;;;;;5072629;28;20134;-48
2024/01/24 06:30:11;;;;;;;41.58;7.10;;;9.60;99.90;;;;;;5072452;28;20114;-49
2024/01/24 06:32:37;;;;;;;30.80;7.32;;;9.60;99.90;;;;;;5073674;28;20064;-49
2024/01/24 06:35:03;;;;;;;36.58;6.28;;;9.30;99.90;;;;;;5072512;28;20083;-48
2024/01/24 06:37:28;;;;;;;38.45;7.18;;;9.30;99.90;;;;;;5073719;28;20044;-50
2024/01/24 06:39:54;;;;;;;36.90;6.63;;;9.30;99.90;;;;;;5073446;28;20472;-49
2024/01/24 06:42:20;;;;;;;36.88;6.43;;;9.50;99.90;;;;;;5073580;28;20457;-50
2024/01/24 06:44:45;;;;;;;34.75;6.13;;;9.60;99.90;;;;;;5073342;28;20382;-50
2024/01/24 06:47:11;;;;;;;30.25;4.50;;;9.40;99.90;;;;;;5073460;28;20043;-48
2024/01/24 06:49:37;;;;;;;36.00;6.18;;;9.40;99.90;;;;;;5073265;28;20094;-47
2024/01/24 06:52:03;;;;;;;36.22;4.53;;;9.50;99.90;;;;;;5063867;28;20777;-48
2024/01/24 06:54:28;;;;;;;25.88;5.60;;;9.10;99.90;;;;;;5069101;28;20431;-47
2024/01/24 06:56:54;;;;;;;32.58;4.38;;;9.40;99.90;;;;;;5073534;28;20540;-50
2024/01/24 06:59:20;;;;;;;31.10;6.20;;;9.10;99.90;;;;;;5073580;28;20068;-49
2024/01/24 07:01:45;;;;;;;29.83;5.50;;;9.20;99.90;;;;;;5073169;28;20052;-48
2024/01/24 07:04:11;;;;;;;32.45;5.07;;;9.20;99.90;;;;;;5073148;28;20151;-49
2024/01/24 07:06:37;;;;;;;29.73;5.18;;;9.30;99.90;;;;;;5072174;28;20053;-46
2024/01/24 07:09:03;;;;;;;28.35;5.65;;;9.40;99.90;;;;;;5072956;28;20058;-49
2024/01/24 07:11:28;;;;;;;36.10;5.55;;;9.10;99.90;;;;;;5073106;28;20101;-48
2024/01/24 07:13:54;;;;;;;32.95;5.68;;;9.00;99.90;;;;;;5072862;28;20044;-47
2024/01/24 07:16:20;;;;;;;35.83;6.47;;;9.10;99.90;;;;;;5072335;28;20389;-47
2024/01/24 07:18:45;;;;;;;30.00;5.75;;;9.10;99.90;;;;;;5072980;28;20036;-52
2024/01/24 07:21:11;;;;;;;24.70;4.75;;;9.20;99.90;;;;;;5072919;28;20036;-49
2024/01/24 07:23:37;;;;;;;29.60;6.28;;;9.30;99.90;;;;;;5072678;28;20033;-46
2024/01/24 07:26:03;;;;;;;37.72;5.22;;;9.10;99.90;;;;;;5072761;28;20040;-49
2024/01/24 07:28:29;;;;;;;26.27;4.45;;;9.00;99.90;;;;;;5072953;28;20169;-49
2024/01/24 07:30:55;;;;;;;30.30;5.72;;;9.10;99.90;;;;;;5072495;28;20124;-46
2024/01/24 07:33:21;;;;;;;35.03;5.65;;;9.30;99.90;;;;;;5072564;28;20044;-50
2024/01/24 07:35:47;;;;;;;27.92;5.30;;;9.10;99.90;;;;;;5071214;28;20094;-49
2024/01/24 07:38:13;;;;;;;34.78;6.47;;;9.10;99.90;;;;;;5072672;28;20040;-49
2024/01/24 07:40:39;;;;;;;33.78;5.55;;;9.10;99.90;;;;;;5071456;28;20518;-49
2024/01/24 07:43:05;;;;;;;35.17;5.82;;;9.20;99.90;;;;;;5072613;28;20044;-49
2024/01/24 07:45:30;;;;;;;26.52;4.75;;;9.10;99.90;;;;;;5072489;28;20071;-48
2024/01/24 07:47:56;;;;;;;33.10;5.60;;;9.30;99.90;;;;;;5072809;28;20448;-49
2024/01/24 07:50:22;;;;;;;27.95;4.63;;;9.20;99.90;;;;;;5071904;28;20052;-49
2024/01/24 07:52:48;;;;;;;31.02;5.55;;;9.10;99.90;;;;;;5072359;28;20044;-45
2024/01/24 07:55:13;;;;;;;30.58;4.90;;;9.20;99.90;;;;;;5071080;28;20043;-48
2024/01/24 07:57:40;;;;;;;23.13;4.78;;;9.20;99.90;;;;;;5072208;28;20067;-50
2024/01/24 08:00:06;;;;;;;30.73;5.68;;;9.20;99.90;;;;;;5072177;28;20040;-50
2024/01/24 08:02:32;;;;;;;33.88;6.65;;;8.80;99.90;;;;;;5071958;28;20048;-49
2024/01/24 08:04:58;;;;;;;35.28;6.75;;;9.20;99.90;;;;;;5071788;28;20051;-50
2024/01/24 08:07:24;;;;;;;31.40;5.05;;;9.00;99.90;;;;;;5071873;28;20036;-50
2024/01/24 08:09:50;;;;;;;32.47;6.38;;;9.20;99.90;;;;;;5070508;28;20077;-51
2024/01/24 08:12:15;;;;;;;29.75;5.18;;;8.90;99.90;;;;;;5072189;28;20107;-48
2024/01/24 08:14:41;;;;;;;34.13;6.47;;;9.10;99.90;;;;;;5071850;28;20048;-50
2024/01/24 08:17:10;;;;;;;30.50;5.68;;;9.20;99.90;;;;;;5071947;28;20044;-48
2024/01/24 08:19:38;;;;;;;28.80;6.18;;;9.00;99.90;;;;;;5071929;28;20070;-48
2024/01/24 08:22:04;;;;;;;23.35;4.47;;;9.10;99.90;;;;;;5071849;28;20048;-49
2024/01/24 08:24:30;;;;;;;32.13;4.60;;;9.00;99.90;;;;;;5071750;28;20552;-51
2024/01/24 08:26:56;;;;;;;33.47;6.35;;;8.90;99.90;;;;;;5071073;28;20044;-47
2024/01/24 08:29:25;;;;;;;34.40;5.60;;;9.20;99.90;;;;;;5070097;28;20506;-47
2024/01/24 08:31:50;;;;;;;30.38;5.22;;;9.00;99.90;;;;;;5071410;28;20178;-46
2024/01/24 08:34:17;;;;;;;29.08;5.55;;;9.10;99.90;;;;;;5071423;28;20131;-47
2024/01/24 08:36:43;;;;;;;31.77;6.57;;;9.00;99.90;;;;;;5071353;28;20036;-48
2024/01/24 08:39:10;;;;;;;34.22;6.07;;;8.90;99.90;;;;;;5067844;28;20109;-48
2024/01/24 08:41:36;;;;;;;29.52;5.18;;;8.90;99.90;;;;;;5061148;28;20037;-50
2024/01/24 08:44:02;;;;;;;32.05;6.40;;;8.90;99.90;;;;;;5060398;28;20032;-48
2024/01/24 08:46:28;;;;;;;31.65;5.45;;;9.20;99.90;;;;;;5061994;28;20461;-47
2024/01/24 08:48:54;;;;;;;30.58;6.28;;;8.90;99.90;;;;;;5060104;28;20701;-48
2024/01/24 08:51:21;;;;;;;31.80;5.53;;;9.00;99.90;;;;;;5060391;28;20087;-47
2024/01/24 08:53:46;;;;;;;31.00;5.70;;;9.20;99.90;;;;;;5062084;28;20071;-46
2024/01/24 08:56:13;;;;;;;33.70;5.47;;;9.00;99.90;;;;;;5068958;28;20063;-47
2024/01/24 08:58:39;;;;;;;35.45;6.35;;;9.00;99.90;;;;;;5071497;28;20032;-45
2024/01/24 09:01:05;;;;;;;32.95;5.40;;;8.90;99.90;;;;;;5071387;28;20048;-46
2024/01/24 09:03:31;;;;;;;24.73;5.40;;;9.10;99.90;;;;;;5070078;28;20110;-47
2024/01/24 09:05:57;;;;;;;33.92;5.63;;;9.20;99.90;;;;;;5071025;28;20068;-47
2024/01/24 09:08:23;;;;;;;39.65;6.10;;;9.20;99.90;;;;;;5071040;28;20090;-47
2024/01/24 09:10:48;;;;;;;36.20;5.43;;;8.90;99.90;;;;;;5071000;28;20071;-46
2024/01/24 09:13:19;;;;;;;34.60;5.05;;;9.10;99.90;;;;;;5071446;28;20079;-48
2024/01/24 09:15:45;;;;;;;35.78;6.20;;;9.10;99.90;;;;;;5071074;28;20044;-51
2024/01/24 09:18:10;;;;;;;39.58;7.13;;;9.00;99.90;;;;;;5070999;28;20454;-50
2024/01/24 09:20:36;;;;;;;33.88;7.00;;;9.20;99.90;;;;;;5071127;28;20083;-49
2024/01/24 09:23:02;;;;;;;29.88;4.93;;;9.30;99.90;;;;;;5070472;28;20040;-50
2024/01/24 09:25:27;;;;;;;32.10;5.63;;;9.30;99.90;;;;;;5070836;28;20051;-51
2024/01/24 09:27:53;;;;;;;40.80;7.72;;;9.10;99.90;;;;;;5069850;28;20062;-51
2024/01/24 09:30:20;;;;;;;26.83;5.20;;;9.40;99.90;;;;;;5070805;28;20051;-48
2024/01/24 09:32:46;;;;;;;36.55;5.55;;;9.40;99.90;;;;;;5071447;28;20045;-47
2024/01/24 09:35:11;;;;;;;34.25;5.57;;;9.20;99.90;;;;;;5070488;28;20056;-48
2024/01/24 09:37:37;;;;;;;34.17;5.72;;;9.40;99.90;;;;;;5072638;28;20064;-47
2024/01/24 09:40:04;;;;;;;33.08;6.82;;;9.20;99.90;;;;;;5074462;28;20420;-48
2024/01/24 09:42:35;;;;;;;36.78;5.13;;;9.20;99.90;;;;;;5075856;28;20052;-48
2024/01/24 09:45:03;;;;;;;31.98;6.22;;;9.20;99.90;;;;;;5075517;28;20101;-49
2024/01/24 09:47:28;;;;;;;32.83;5.95;;;9.30;99.90;;;;;;5074949;28;20055;-47
2024/01/24 09:49:54;;;;;;;31.95;6.10;;;9.50;99.90;;;;;;5075224;28;20053;-50
2024/01/24 09:52:26;;;;;;;30.00;6.53;;;9.40;99.90;;;;;;5074371;28;20087;-46
2024/01/24 09:54:59;;;;;;;39.22;6.38;;;9.30;99.90;;;;;;5075230;28;20120;-51
2024/01/24 09:57:26;;;;;;;33.85;6.13;;;9.30;99.90;;;;;;5075400;28;20047;-48
2024/01/24 09:59:51;;;;;;;28.75;6.10;;;9.50;99.90;;;;;;5075198;28;20040;-47
2024/01/24 10:02:17;;;;;;;34.60;6.20;;;9.30;99.90;;;;;;5075198;28;20036;-46
2024/01/24 10:04:44;;;;;;;37.08;6.13;;;9.60;99.90;;;;;;5075217;28;20036;-48
2024/01/24 10:07:11;;;;;;;26.98;6.00;;;9.30;99.90;;;;;;5074958;28;20033;-46
2024/01/24 10:09:37;;;;;;;28.58;5.82;;;9.40;99.90;;;;;;5075178;28;20048;-46
2024/01/24 10:12:04;;;;;;;33.63;5.22;;;9.40;99.90;;;;;;5073990;28;20119;-49
2024/01/24 10:14:30;;;;;;;29.85;6.65;;;9.50;99.90;;;;;;5074824;28;20068;-58
2024/01/24 10:16:57;;;;;;;32.25;5.25;;;9.40;99.90;;;;;;5073401;28;20036;-50
2024/01/24 10:19:24;;;;;;;33.63;6.25;;;9.70;99.90;;;;;;5073493;28;20041;-46
2024/01/24 10:21:51;;;;;;;27.42;5.60;;;9.60;99.90;;;;;;5075117;28;20036;-50
2024/01/24 10:24:17;;;;;;;33.38;5.43;;;9.80;99.90;;;;;;5075059;28;20052;-46
2024/01/24 10:26:46;;;;;;;29.90;5.57;;;9.70;99.90;;;;;;5074733;28;20044;-48
2024/01/24 10:29:12;;;;;;;41.95;7.47;;;9.70;99.90;;;;;;5074763;28;20041;-48
2024/01/24 10:31:38;;;;;;;35.05;5.78;;;9.80;99.90;;;;;;5056767;28;20041;-47
2024/01/24 10:34:04;;;;;;;30.63;5.75;;;9.70;99.90;;;;;;5069568;28;20036;-46
2024/01/24 10:36:32;;;;;;;29.45;5.10;;;9.90;99.90;;;;;;5053984;28;20397;-47
2024/01/24 10:39:00;;;;;;;38.95;7.97;;;9.80;99.90;;;;;;5053901;28;20029;-46
2024/01/24 10:41:39;;;;;;;31.33;5.00;;;9.70;99.90;;;;;;5057851;28;20044;-46
2024/01/24 10:44:09;;;;;;;37.72;5.43;;;9.60;99.90;;;;;;5074586;28;20048;-49
2024/01/24 10:46:39;;;;;;;33.10;5.38;;;9.80;99.90;;;;;;5074526;28;20055;-49
2024/01/24 10:49:07;;;;;;;29.70;5.13;;;9.70;99.90;;;;;;5072137;28;20052;-46
2024/01/24 10:51:33;;;;;;;28.42;5.45;;;9.60;99.90;;;;;;5073913;28;20554;-48
2024/01/24 10:54:02;;;;;;;30.67;7.55;;;9.90;99.90;;;;;;5074391;28;20083;-48
2024/01/24 10:56:29;;;;;;;25.70;5.07;;;9.60;99.90;;;;;;5072723;28;20093;-50
2024/01/24 10:58:56;;;;;;;35.70;4.95;;;9.80;99.90;;;;;;5073100;28;20036;-46
2024/01/24 11:01:22;;;;;;;31.25;5.43;;;9.80;99.90;;;;;;5074267;28;20040;-47
2024/01/24 11:03:51;;;;;;;31.05;6.43;;;9.70;99.90;;;;;;5073954;28;20133;-47
2024/01/24 11:06:18;;;;;;;26.48;5.25;;;9.70;99.90;;;;;;5074192;28;20396;-51
2024/01/24 11:08:57;;;;;;;23.15;5.82;;;9.80;99.90;;;;;;5074196;28;20041;-51
2024/01/24 11:11:23;;;;;;;30.30;4.82;;;9.70;99.90;;;;;;5066434;28;20056;-48
2024/01/24 11:13:52;;;;;;;26.10;4.30;;;9.70;99.90;;;;;;5061780;28;20072;-49
2024/01/24 11:16:30;;;;;;;23.35;4.72;;;9.70;99.90;;;;;;5062644;28;20094;-48
2024/01/24 11:19:22;;;;;;;29.05;5.45;;;9.90;99.90;;;;;;5062607;28;20124;-47
2024/01/24 11:21:48;;;;;;;23.08;4.85;;;9.90;99.90;;;;;;5059257;28;20040;-47
2024/01/24 11:24:39;;;;;;;27.15;5.15;;;9.90;99.90;;;;;;5053392;28;20032;-50
2024/01/24 11:27:34;;;;;;;22.38;4.63;;;10.00;99.90;;;;;;5053414;28;20060;-55
2024/01/24 11:30:11;;;;;;;19.50;4.85;;;9.90;99.90;;;;;;5053363;28;20159;-51
2024/01/24 11:32:58;;;;;;;29.23;5.65;;;10.00;99.90;;;;;;5053764;28;20044;-45
2024/01/24 11:35:35;;;;;;;23.02;3.95;;;9.80;99.90;;;;;;5053743;28;20040;-47
2024/01/24 11:38:16;;;;;;;24.92;4.97;;;9.90;99.90;;;;;;5053632;28;20049;-46
2024/01/24 11:40:47;;;;;;;25.40;4.70;;;9.90;99.90;;;;;;5070475;28;20083;-48
2024/01/24 11:43:24;;;;;;;23.40;3.70;;;9.90;99.90;;;;;;5073506;28;20047;-46
2024/01/24 11:46:01;;;;;;;33.17;6.22;;;9.70;99.90;;;;;;5073243;28;20041;-48
2024/01/24 11:48:29;;;;;;;25.33;5.38;;;9.60;99.90;;;;;;5073477;28;20040;-46
2024/01/24 11:51:04;;;;;;;27.83;5.80;;;9.80;99.90;;;;;;5073240;28;20063;-47
2024/01/24 11:53:30;;;;;;;21.83;4.22;;;9.70;99.90;;;;;;5073089;28;20055;-48
2024/01/24 11:56:02;;;;;;;39.13;7.15;;;9.80;99.90;;;;;;5073211;28;20040;-46
2024/01/24 11:58:28;;;;;;;31.45;6.32;;;9.80;99.90;;;;;;5073299;28;20047;-45
2024/01/24 12:00:55;;;;;;;30.35;7.20;;;9.60;99.90;;;;;;5072746;28;20040;-47
2024/01/24 12:03:21;;;;;;;25.88;4.57;;;9.80;99.90;;;;;;5073162;28;20102;-48
2024/01/24 12:05:48;;;;;;;32.33;6.85;;;9.80;99.90;;;;;;5072936;28;20033;-46
2024/01/24 12:08:14;;;;;;;27.23;5.13;;;9.80;99.90;;;;;;5072628;28;20036;-46
2024/01/24 12:10:40;;;;;;;27.77;5.28;;;9.90;99.90;;;;;;5072630;28;20048;-46
2024/01/24 12:13:07;;;;;;;22.67;4.10;;;9.90;99.90;;;;;;5072656;28;20068;-47
2024/01/24 12:15:33;;;;;;;24.30;4.47;;;9.90;99.90;;;;;;5072285;28;20531;-48
2024/01/24 12:18:04;;;;;;;26.80;5.75;;;9.70;99.90;;;;;;5072549;28;20393;-50
2024/01/24 12:20:31;;;;;;;29.27;5.85;;;9.70;99.90;;;;;;5072730;28;20052;-48
2024/01/24 12:22:57;;;;;;;29.40;4.95;;;9.80;99.90;;;;;;5072385;28;20055;-50
2024/01/24 12:25:22;;;;;;;29.23;5.57;;;9.80;99.90;;;;;;5072500;28;20040;-51
2024/01/24 12:27:50;;;;;;;32.63;7.53;;;9.70;99.90;;;;;;5072608;28;20107;-50
2024/01/24 12:30:16;;;;;;;28.77;5.82;;;9.70;99.90;;;;;;5072508;28;20084;-47
2024/01/24 12:32:41;;;;;;;34.60;7.28;;;9.70;99.90;;;;;;5072556;28;20614;-48
2024/01/24 12:35:11;;;;;;;33.05;5.03;;;9.90;99.90;;;;;;5072293;28;20039;-47
2024/01/24 12:37:38;;;;;;;29.13;5.88;;;9.70;99.90;;;;;;5072329;28;20048;-50
2024/01/24 12:40:07;;;;;;;35.03;6.03;;;9.70;99.90;;;;;;5072142;28;20045;-47